sensor_id;sensor_type;location;lat;lon;timestamp;temperature;humidity
31387;DHT22;18017;50.124;8.688;2022-09-17T00:00:14;10.80;99.90
31387;DHT22;18017;50.124;8.688;2022-09-17T00:02:39;10.70;99.90
31387;DHT22;18017;50.124;8.688;2022-09-17T00:05:07;10.70;99.90
31387;DHT22;18017;50.124;8.688;2022-09-17T00:07:34;10.60;99.90
31387;DHT22;18017;50.124;8.688;2022-09-17T00:09:59;10.60;99.90
31387;DHT22;18017;50.124;8.688;2022-09-17T00:12:25;10.60;99.90
31387;DHT22;18017;50.124;8.688;2022-09-17T00:14:50;10.60;99.90
31387;DHT22;18017;50.124;8.688;2022-09-17T00:17:16;10.70;99.90
31387;DHT22;18017;50.124;8.688;2022-09-17T00:19:42;10.70;99.90
31387;DHT22;18017;50.124;8.688;2022-09-17T00:22:07;10.90;99.90
31387;DHT22;18017;50.124;8.688;2022-09-17T00:24:33;11.00;99.90
31387;DHT22;18017;50.124;8.688;2022-09-17T00:26:58;11.00;99.90
31387;DHT22;18017;50.124;8.688;2022-09-17T00:29:24;11.10;99.90
31387;DHT22;18017;50.124;8.688;2022-09-17T00:31:49;11.00;99.90
31387;DHT22;18017;50.124;8.688;2022-09-17T00:34:15;10.90;99.90
31387;DHT22;18017;50.124;8.688;2022-09-17T00:36:41;10.90;99.90
31387;DHT22;18017;50.124;8.688;2022-09-17T00:39:08;10.80;99.90
31387;DHT22;18017;50.124;8.688;2022-09-17T00:41:35;10.90;99.90
31387;DHT22;18017;50.124;8.688;2022-09-17T00:47:24;10.90;99.90
31387;DHT22;18017;50.124;8.688;2022-09-17T00:49:53;10.90;99.90
31387;DHT22;18017;50.124;8.688;2022-09-17T00:52:25;10.90;99.90
31387;DHT22;18017;50.124;8.688;2022-09-17T00:55:38;10.90;99.90
31387;DHT22;18017;50.124;8.688;2022-09-17T00:57:45;10.80;99.90
31387;DHT22;18017;50.124;8.688;2022-09-17T01:00:13;10.80;99.90
31387;DHT22;18017;50.124;8.688;2022-09-17T01:02:41;10.80;99.90
31387;DHT22;18017;50.124;8.688;2022-09-17T01:05:07;10.80;99.90
31387;DHT22;18017;50.124;8.688;2022-09-17T01:16:27;10.90;99.90
31387;DHT22;18017;50.124;8.688;2022-09-17T01:19:09;10.80;99.90
31387;DHT22;18017;50.124;8.688;2022-09-17T01:22:00;10.80;99.90
31387;DHT22;18017;50.124;8.688;2022-09-17T01:30:05;10.80;99.90
31387;DHT22;18017;50.124;8.688;2022-09-17T01:32:49;10.90;99.90
31387;DHT22;18017;50.124;8.688;2022-09-17T01:35:30;11.00;99.90
31387;DHT22;18017;50.124;8.688;2022-09-17T01:38:26;11.10;99.90
31387;DHT22;18017;50.124;8.688;2022-09-17T01:44:01;11.10;99.90
31387;DHT22;18017;50.124;8.688;2022-09-17T01:46:47;11.20;99.90
31387;DHT22;18017;50.124;8.688;2022-09-17T01:49:15;11.20;99.90
31387;DHT22;18017;50.124;8.688;2022-09-17T01:51:44;11.20;99.90
31387;DHT22;18017;50.124;8.688;2022-09-17T01:56:44;11.20;99.90
31387;DHT22;18017;50.124;8.688;2022-09-17T01:59:17;11.30;99.90
31387;DHT22;18017;50.124;8.688;2022-09-17T02:01:45;11.20;99.90
31387;DHT22;18017;50.124;8.688;2022-09-17T02:04:31;11.20;99.90
31387;DHT22;18017;50.124;8.688;2022-09-17T02:07:04;11.20;99.90
31387;DHT22;18017;50.124;8.688;2022-09-17T02:09:44;11.20;99.90
31387;DHT22;18017;50.124;8.688;2022-09-17T02:12:17;11.20;99.90
31387;DHT22;18017;50.124;8.688;2022-09-17T02:14:48;11.30;99.90
31387;DHT22;18017;50.124;8.688;2022-09-17T02:17:21;11.30;99.90
31387;DHT22;18017;50.124;8.688;2022-09-17T02:19:49;11.30;99.90
31387;DHT22;18017;50.124;8.688;2022-09-17T02:25:01;11.30;99.90
31387;DHT22;18017;50.124;8.688;2022-09-17T02:28:05;11.30;99.90
31387;DHT22;18017;50.124;8.688;2022-09-17T02:30:33;11.30;99.90
31387;DHT22;18017;50.124;8.688;2022-09-17T02:33:00;11.30;99.90
31387;DHT22;18017;50.124;8.688;2022-09-17T02:35:26;11.30;99.90
31387;DHT22;18017;50.124;8.688;2022-09-17T02:37:52;11.30;99.90
31387;DHT22;18017;50.124;8.688;2022-09-17T02:40:20;11.30;99.90
31387;DHT22;18017;50.124;8.688;2022-09-17T02:43:12;11.30;99.90
31387;DHT22;18017;50.124;8.688;2022-09-17T02:54:24;11.20;99.90
31387;DHT22;18017;50.124;8.688;2022-09-17T03:00:13;11.30;99.90
31387;DHT22;18017;50.124;8.688;2022-09-17T03:02:41;11.30;99.90
31387;DHT22;18017;50.124;8.688;2022-09-17T03:05:10;11.30;99.90
31387;DHT22;18017;50.124;8.688;2022-09-17T03:07:37;11.30;99.90
31387;DHT22;18017;50.124;8.688;2022-09-17T03:10:04;11.30;99.90
31387;DHT22;18017;50.124;8.688;2022-09-17T03:12:30;11.30;99.90
31387;DHT22;18017;50.124;8.688;2022-09-17T03:14:56;11.30;99.90
31387;DHT22;18017;50.124;8.688;2022-09-17T03:17:21;11.30;99.90
31387;DHT22;18017;50.124;8.688;2022-09-17T03:19:47;11.30;99.90
31387;DHT22;18017;50.124;8.688;2022-09-17T03:22:13;11.30;99.90
31387;DHT22;18017;50.124;8.688;2022-09-17T03:24:39;11.40;99.90
31387;DHT22;18017;50.124;8.688;2022-09-17T03:27:04;11.40;99.90
31387;DHT22;18017;50.124;8.688;2022-09-17T03:29:30;11.30;99.90
31387;DHT22;18017;50.124;8.688;2022-09-17T03:31:55;11.30;99.90
31387;DHT22;18017;50.124;8.688;2022-09-17T03:34:21;11.30;99.90
31387;DHT22;18017;50.124;8.688;2022-09-17T03:36:48;11.30;99.90
31387;DHT22;18017;50.124;8.688;2022-09-17T03:39:13;11.20;99.90
31387;DHT22;18017;50.124;8.688;2022-09-17T03:41:39;11.30;99.90
31387;DHT22;18017;50.124;8.688;2022-09-17T03:44:05;11.20;99.90
31387;DHT22;18017;50.124;8.688;2022-09-17T03:46:31;11.20;99.90
31387;DHT22;18017;50.124;8.688;2022-09-17T03:48:56;11.20;99.90
31387;DHT22;18017;50.124;8.688;2022-09-17T03:51:22;11.20;99.90
31387;DHT22;18017;50.124;8.688;2022-09-17T03:53:47;11.20;99.90
31387;DHT22;18017;50.124;8.688;2022-09-17T03:56:13;11.10;99.90
31387;DHT22;18017;50.124;8.688;2022-09-17T03:58:39;11.20;99.90
31387;DHT22;18017;50.124;8.688;2022-09-17T04:01:04;11.20;99.90
31387;DHT22;18017;50.124;8.688;2022-09-17T04:03:31;11.20;99.90
31387;DHT22;18017;50.124;8.688;2022-09-17T04:05:56;11.20;99.90
31387;DHT22;18017;50.124;8.688;2022-09-17T04:08:22;11.20;99.90
31387;DHT22;18017;50.124;8.688;2022-09-17T04:10:48;11.10;99.90
31387;DHT22;18017;50.124;8.688;2022-09-17T04:13:14;11.10;99.90
31387;DHT22;18017;50.124;8.688;2022-09-17T04:15:40;11.10;99.90
31387;DHT22;18017;50.124;8.688;2022-09-17T04:18:06;11.10;99.90
31387;DHT22;18017;50.124;8.688;2022-09-17T04:20:32;11.10;99.90
31387;DHT22;18017;50.124;8.688;2022-09-17T04:22:57;11.10;99.90
31387;DHT22;18017;50.124;8.688;2022-09-17T04:25:23;11.10;99.90
31387;DHT22;18017;50.124;8.688;2022-09-17T04:27:49;11.10;99.90
31387;DHT22;18017;50.124;8.688;2022-09-17T04:30:15;11.10;99.90
31387;DHT22;18017;50.124;8.688;2022-09-17T04:32:42;11.10;99.90
31387;DHT22;18017;50.124;8.688;2022-09-17T04:35:08;11.10;99.90
31387;DHT22;18017;50.124;8.688;2022-09-17T04:37:33;11.10;99.90
31387;DHT22;18017;50.124;8.688;2022-09-17T04:39:59;11.10;99.90
31387;DHT22;18017;50.124;8.688;2022-09-17T04:42:25;11.10;99.90
31387;DHT22;18017;50.124;8.688;2022-09-17T04:44:50;11.00;99.90
31387;DHT22;18017;50.124;8.688;2022-09-17T04:47:16;11.00;99.90
31387;DHT22;18017;50.124;8.688;2022-09-17T04:49:42;11.00;99.90
31387;DHT22;18017;50.124;8.688;2022-09-17T04:52:08;11.00;99.90
31387;DHT22;18017;50.124;8.688;2022-09-17T04:54:33;11.00;99.90
31387;DHT22;18017;50.124;8.688;2022-09-17T04:56:59;10.90;99.90
31387;DHT22;18017;50.124;8.688;2022-09-17T04:59:25;10.90;99.90
31387;DHT22;18017;50.124;8.688;2022-09-17T05:01:51;10.90;99.90
31387;DHT22;18017;50.124;8.688;2022-09-17T05:04:16;10.90;99.90
31387;DHT22;18017;50.124;8.688;2022-09-17T05:06:42;11.00;99.90
31387;DHT22;18017;50.124;8.688;2022-09-17T05:09:07;11.00;99.90
31387;DHT22;18017;50.124;8.688;2022-09-17T05:11:33;11.00;99.90
31387;DHT22;18017;50.124;8.688;2022-09-17T05:13:59;10.90;99.90
31387;DHT22;18017;50.124;8.688;2022-09-17T05:16:24;10.90;99.90
31387;DHT22;18017;50.124;8.688;2022-09-17T05:18:50;10.90;99.90
31387;DHT22;18017;50.124;8.688;2022-09-17T05:21:17;10.90;99.90
31387;DHT22;18017;50.124;8.688;2022-09-17T05:23:42;10.80;99.90
31387;DHT22;18017;50.124;8.688;2022-09-17T05:26:08;10.80;99.90
31387;DHT22;18017;50.124;8.688;2022-09-17T05:28:33;10.80;99.90
31387;DHT22;18017;50.124;8.688;2022-09-17T05:31:00;10.70;99.90
31387;DHT22;18017;50.124;8.688;2022-09-17T05:33:26;10.70;99.90
31387;DHT22;18017;50.124;8.688;2022-09-17T05:35:52;10.60;99.90
31387;DHT22;18017;50.124;8.688;2022-09-17T05:38:17;10.60;99.90
31387;DHT22;18017;50.124;8.688;2022-09-17T05:40:44;10.60;99.90
31387;DHT22;18017;50.124;8.688;2022-09-17T05:43:10;10.50;99.90
31387;DHT22;18017;50.124;8.688;2022-09-17T05:45:37;10.60;99.90
31387;DHT22;18017;50.124;8.688;2022-09-17T05:48:06;10.70;99.90
31387;DHT22;18017;50.124;8.688;2022-09-17T05:50:32;10.70;99.90
31387;DHT22;18017;50.124;8.688;2022-09-17T05:53:06;10.80;99.90
31387;DHT22;18017;50.124;8.688;2022-09-17T05:55:32;11.00;99.90
31387;DHT22;18017;50.124;8.688;2022-09-17T05:57:59;11.00;99.90
31387;DHT22;18017;50.124;8.688;2022-09-17T06:00:26;11.10;99.90
31387;DHT22;18017;50.124;8.688;2022-09-17T06:02:55;11.20;99.90
31387;DHT22;18017;50.124;8.688;2022-09-17T06:05:22;11.60;99.90
31387;DHT22;18017;50.124;8.688;2022-09-17T06:07:48;12.30;99.90
31387;DHT22;18017;50.124;8.688;2022-09-17T06:10:14;13.60;99.90
31387;DHT22;18017;50.124;8.688;2022-09-17T06:12:39;14.90;99.90
31387;DHT22;18017;50.124;8.688;2022-09-17T06:15:05;16.70;99.90
31387;DHT22;18017;50.124;8.688;2022-09-17T06:17:34;18.50;99.90
31387;DHT22;18017;50.124;8.688;2022-09-17T06:20:01;18.90;99.90
31387;DHT22;18017;50.124;8.688;2022-09-17T06:22:27;20.30;99.90
31387;DHT22;18017;50.124;8.688;2022-09-17T06:24:52;18.00;99.90
31387;DHT22;18017;50.124;8.688;2022-09-17T06:27:18;16.70;99.90
31387;DHT22;18017;50.124;8.688;2022-09-17T06:29:44;17.80;99.90
31387;DHT22;18017;50.124;8.688;2022-09-17T06:32:09;19.60;99.90
31387;DHT22;18017;50.124;8.688;2022-09-17T06:34:37;21.50;99.90
31387;DHT22;18017;50.124;8.688;2022-09-17T06:37:03;22.40;99.90
31387;DHT22;18017;50.124;8.688;2022-09-17T06:39:29;23.50;99.90
31387;DHT22;18017;50.124;8.688;2022-09-17T06:41:55;24.40;99.90
31387;DHT22;18017;50.124;8.688;2022-09-17T06:44:20;25.20;99.90
31387;DHT22;18017;50.124;8.688;2022-09-17T06:46:48;23.80;99.90
31387;DHT22;18017;50.124;8.688;2022-09-17T06:49:15;21.80;99.90
31387;DHT22;18017;50.124;8.688;2022-09-17T06:51:42;19.60;99.90
31387;DHT22;18017;50.124;8.688;2022-09-17T06:54:08;18.30;99.90
31387;DHT22;18017;50.124;8.688;2022-09-17T06:56:33;18.00;99.90
31387;DHT22;18017;50.124;8.688;2022-09-17T06:59:00;20.50;99.90
31387;DHT22;18017;50.124;8.688;2022-09-17T07:01:25;23.60;99.90
31387;DHT22;18017;50.124;8.688;2022-09-17T07:03:51;25.60;99.90
31387;DHT22;18017;50.124;8.688;2022-09-17T07:06:17;27.00;99.90
31387;DHT22;18017;50.124;8.688;2022-09-17T07:08:42;27.80;99.40
31387;DHT22;18017;50.124;8.688;2022-09-17T07:11:08;26.60;98.40
31387;DHT22;18017;50.124;8.688;2022-09-17T07:13:34;25.20;97.90
31387;DHT22;18017;50.124;8.688;2022-09-17T07:16:01;22.30;99.90
31387;DHT22;18017;50.124;8.688;2022-09-17T07:18:28;20.50;99.90
31387;DHT22;18017;50.124;8.688;2022-09-17T07:20:54;24.30;99.90
31387;DHT22;18017;50.124;8.688;2022-09-17T07:23:24;23.40;99.90
31387;DHT22;18017;50.124;8.688;2022-09-17T07:25:55;25.80;98.20
31387;DHT22;18017;50.124;8.688;2022-09-17T07:28:22;23.80;98.20
31387;DHT22;18017;50.124;8.688;2022-09-17T07:30:48;24.40;97.70
31387;DHT22;18017;50.124;8.688;2022-09-17T07:33:15;23.50;98.00
31387;DHT22;18017;50.124;8.688;2022-09-17T07:35:42;22.10;99.90
31387;DHT22;18017;50.124;8.688;2022-09-17T07:38:07;21.80;99.90
31387;DHT22;18017;50.124;8.688;2022-09-17T07:40:33;24.80;98.80
31387;DHT22;18017;50.124;8.688;2022-09-17T07:42:59;26.40;98.30
31387;DHT22;18017;50.124;8.688;2022-09-17T07:45:24;30.50;94.40
31387;DHT22;18017;50.124;8.688;2022-09-17T07:47:50;31.00;92.20
31387;DHT22;18017;50.124;8.688;2022-09-17T07:50:18;31.80;90.80
31387;DHT22;18017;50.124;8.688;2022-09-17T07:52:45;29.00;91.30
31387;DHT22;18017;50.124;8.688;2022-09-17T07:55:14;30.30;90.10
31387;DHT22;18017;50.124;8.688;2022-09-17T07:57:40;28.30;91.20
31387;DHT22;18017;50.124;8.688;2022-09-17T08:00:06;28.90;90.20
31387;DHT22;18017;50.124;8.688;2022-09-17T08:02:32;25.30;91.70
31387;DHT22;18017;50.124;8.688;2022-09-17T08:04:58;22.00;94.10
31387;DHT22;18017;50.124;8.688;2022-09-17T08:07:23;20.30;96.70
31387;DHT22;18017;50.124;8.688;2022-09-17T08:09:49;19.10;98.20
31387;DHT22;18017;50.124;8.688;2022-09-17T08:12:15;18.10;99.60
31387;DHT22;18017;50.124;8.688;2022-09-17T08:14:43;17.60;99.90
31387;DHT22;18017;50.124;8.688;2022-09-17T08:17:09;17.40;99.90
31387;DHT22;18017;50.124;8.688;2022-09-17T08:19:34;17.40;99.90
31387;DHT22;18017;50.124;8.688;2022-09-17T08:22:00;17.30;99.90
31387;DHT22;18017;50.124;8.688;2022-09-17T08:24:26;16.90;99.90
31387;DHT22;18017;50.124;8.688;2022-09-17T08:26:52;16.50;99.90
31387;DHT22;18017;50.124;8.688;2022-09-17T08:29:18;16.60;99.90
31387;DHT22;18017;50.124;8.688;2022-09-17T08:31:43;16.60;99.90
31387;DHT22;18017;50.124;8.688;2022-09-17T08:34:10;16.40;99.90
31387;DHT22;18017;50.124;8.688;2022-09-17T08:36:36;16.30;99.90
31387;DHT22;18017;50.124;8.688;2022-09-17T08:39:02;18.90;99.90
31387;DHT22;18017;50.124;8.688;2022-09-17T08:41:47;27.40;97.40
31387;DHT22;18017;50.124;8.688;2022-09-17T08:46:47;31.90;86.00
31387;DHT22;18017;50.124;8.688;2022-09-17T08:49:24;33.10;85.20
31387;DHT22;18017;50.124;8.688;2022-09-17T08:54:35;38.80;75.00
31387;DHT22;18017;50.124;8.688;2022-09-17T08:57:30;39.20;71.80
31387;DHT22;18017;50.124;8.688;2022-09-17T09:00:22;39.00;69.90
31387;DHT22;18017;50.124;8.688;2022-09-17T09:05:52;39.00;66.70
31387;DHT22;18017;50.124;8.688;2022-09-17T09:08:39;40.30;66.40
31387;DHT22;18017;50.124;8.688;2022-09-17T09:11:27;40.60;65.00
31387;DHT22;18017;50.124;8.688;2022-09-17T09:16:46;38.50;65.10
31387;DHT22;18017;50.124;8.688;2022-09-17T09:19:25;37.70;64.10
31387;DHT22;18017;50.124;8.688;2022-09-17T09:24:50;28.40;72.60
31387;DHT22;18017;50.124;8.688;2022-09-17T09:27:24;25.80;76.30
31387;DHT22;18017;50.124;8.688;2022-09-17T09:30:02;23.40;80.80
31387;DHT22;18017;50.124;8.688;2022-09-17T09:32:50;24.20;84.90
31387;DHT22;18017;50.124;8.688;2022-09-17T09:35:33;29.60;76.40
31387;DHT22;18017;50.124;8.688;2022-09-17T09:40:52;36.20;70.90
31387;DHT22;18017;50.124;8.688;2022-09-17T09:43:44;33.80;69.10
31387;DHT22;18017;50.124;8.688;2022-09-17T09:46:29;29.10;72.10
31387;DHT22;18017;50.124;8.688;2022-09-17T09:49:26;25.30;77.60
31387;DHT22;18017;50.124;8.688;2022-09-17T09:57:21;22.80;84.10
31387;DHT22;18017;50.124;8.688;2022-09-17T09:59:49;23.80;83.30
31387;DHT22;18017;50.124;8.688;2022-09-17T10:02:15;24.60;82.80
31387;DHT22;18017;50.124;8.688;2022-09-17T10:04:44;25.10;81.80
31387;DHT22;18017;50.124;8.688;2022-09-17T10:07:10;24.30;82.10
31387;DHT22;18017;50.124;8.688;2022-09-17T10:09:38;23.40;82.40
31387;DHT22;18017;50.124;8.688;2022-09-17T10:14:37;21.70;85.00
31387;DHT22;18017;50.124;8.688;2022-09-17T10:17:22;20.80;87.70
31387;DHT22;18017;50.124;8.688;2022-09-17T10:22:34;20.30;90.10
31387;DHT22;18017;50.124;8.688;2022-09-17T10:25:01;19.90;90.00
31387;DHT22;18017;50.124;8.688;2022-09-17T10:27:28;19.40;91.20
31387;DHT22;18017;50.124;8.688;2022-09-17T10:30:12;19.30;91.40
31387;DHT22;18017;50.124;8.688;2022-09-17T10:32:39;19.90;91.20
31387;DHT22;18017;50.124;8.688;2022-09-17T10:35:24;20.30;90.80
31387;DHT22;18017;50.124;8.688;2022-09-17T10:37:52;21.00;90.30
31387;DHT22;18017;50.124;8.688;2022-09-17T10:42:48;22.70;87.10
31387;DHT22;18017;50.124;8.688;2022-09-17T10:45:23;23.00;86.00
31387;DHT22;18017;50.124;8.688;2022-09-17T10:47:50;23.00;85.30
31387;DHT22;18017;50.124;8.688;2022-09-17T10:52:51;23.60;85.10
31387;DHT22;18017;50.124;8.688;2022-09-17T10:58:34;25.10;82.80
31387;DHT22;18017;50.124;8.688;2022-09-17T11:07:01;25.20;81.60
31387;DHT22;18017;50.124;8.688;2022-09-17T11:14:59;25.20;81.20
31387;DHT22;18017;50.124;8.688;2022-09-17T11:34:18;29.70;77.00
31387;DHT22;18017;50.124;8.688;2022-09-17T11:36:50;29.00;77.30
31387;DHT22;18017;50.124;8.688;2022-09-17T11:39:40;27.10;77.90
31387;DHT22;18017;50.124;8.688;2022-09-17T11:42:21;27.30;79.60
31387;DHT22;18017;50.124;8.688;2022-09-17T11:44:52;28.20;76.40
31387;DHT22;18017;50.124;8.688;2022-09-17T11:47:27;24.60;79.30
31387;DHT22;18017;50.124;8.688;2022-09-17T11:50:34;21.50;86.70
31387;DHT22;18017;50.124;8.688;2022-09-17T11:53:24;19.90;92.50
31387;DHT22;18017;50.124;8.688;2022-09-17T11:56:12;19.10;93.10
31387;DHT22;18017;50.124;8.688;2022-09-17T11:58:54;18.70;95.30
31387;DHT22;18017;50.124;8.688;2022-09-17T12:01:33;18.60;95.70
31387;DHT22;18017;50.124;8.688;2022-09-17T12:12:56;27.00;90.10
31387;DHT22;18017;50.124;8.688;2022-09-17T12:15:25;30.40;87.60
31387;DHT22;18017;50.124;8.688;2022-09-17T12:18:06;30.70;82.90
31387;DHT22;18017;50.124;8.688;2022-09-17T12:20:39;27.20;84.30
31387;DHT22;18017;50.124;8.688;2022-09-17T12:23:10;25.50;85.70
31387;DHT22;18017;50.124;8.688;2022-09-17T12:25:58;27.00;82.50
31387;DHT22;18017;50.124;8.688;2022-09-17T12:28:38;28.60;83.00
31387;DHT22;18017;50.124;8.688;2022-09-17T12:34:40;32.30;77.90
31387;DHT22;18017;50.124;8.688;2022-09-17T12:37:25;32.90;75.70
31387;DHT22;18017;50.124;8.688;2022-09-17T12:40:14;32.00;76.10
31387;DHT22;18017;50.124;8.688;2022-09-17T12:51:09;30.20;75.80
31387;DHT22;18017;50.124;8.688;2022-09-17T12:59:31;30.90;75.70
31387;DHT22;18017;50.124;8.688;2022-09-17T13:02:07;30.90;75.00
31387;DHT22;18017;50.124;8.688;2022-09-17T13:18:26;26.00;79.60
31387;DHT22;18017;50.124;8.688;2022-09-17T13:23:43;26.50;76.50
31387;DHT22;18017;50.124;8.688;2022-09-17T13:26:14;26.20;76.90
31387;DHT22;18017;50.124;8.688;2022-09-17T13:28:50;26.00;76.50
31387;DHT22;18017;50.124;8.688;2022-09-17T13:36:51;24.60;77.00
31387;DHT22;18017;50.124;8.688;2022-09-17T13:42:18;25.00;77.10
31387;DHT22;18017;50.124;8.688;2022-09-17T13:45:08;25.00;76.90
31387;DHT22;18017;50.124;8.688;2022-09-17T13:47:40;24.80;78.00
31387;DHT22;18017;50.124;8.688;2022-09-17T13:52:57;23.20;77.80
31387;DHT22;18017;50.124;8.688;2022-09-17T13:55:41;22.30;81.20
31387;DHT22;18017;50.124;8.688;2022-09-17T14:00:59;21.00;82.60
31387;DHT22;18017;50.124;8.688;2022-09-17T14:08:47;21.10;81.70
31387;DHT22;18017;50.124;8.688;2022-09-17T14:24:21;20.20;84.30
31387;DHT22;18017;50.124;8.688;2022-09-17T14:29:49;20.00;83.50
31387;DHT22;18017;50.124;8.688;2022-09-17T14:32:23;19.60;84.50
31387;DHT22;18017;50.124;8.688;2022-09-17T14:34:52;19.40;85.60
31387;DHT22;18017;50.124;8.688;2022-09-17T14:37:19;19.20;87.00
31387;DHT22;18017;50.124;8.688;2022-09-17T14:39:47;18.90;89.70
31387;DHT22;18017;50.124;8.688;2022-09-17T14:42:17;18.50;92.00
31387;DHT22;18017;50.124;8.688;2022-09-17T14:44:57;18.20;92.90
31387;DHT22;18017;50.124;8.688;2022-09-17T14:47:24;18.20;93.60
31387;DHT22;18017;50.124;8.688;2022-09-17T14:49:51;18.30;93.90
31387;DHT22;18017;50.124;8.688;2022-09-17T14:52:28;18.50;94.50
31387;DHT22;18017;50.124;8.688;2022-09-17T14:55:15;19.40;93.40
31387;DHT22;18017;50.124;8.688;2022-09-17T14:57:48;19.60;92.50
31387;DHT22;18017;50.124;8.688;2022-09-17T15:00:20;19.50;92.80
31387;DHT22;18017;50.124;8.688;2022-09-17T15:02:51;19.50;92.90
31387;DHT22;18017;50.124;8.688;2022-09-17T15:05:30;19.80;93.10
31387;DHT22;18017;50.124;8.688;2022-09-17T15:08:09;20.50;92.60
31387;DHT22;18017;50.124;8.688;2022-09-17T15:13:34;21.80;92.00
31387;DHT22;18017;50.124;8.688;2022-09-17T15:16:15;21.90;91.00
31387;DHT22;18017;50.124;8.688;2022-09-17T15:18:53;21.60;91.20
31387;DHT22;18017;50.124;8.688;2022-09-17T15:21:42;21.30;90.80
31387;DHT22;18017;50.124;8.688;2022-09-17T15:27:34;20.40;91.60
31387;DHT22;18017;50.124;8.688;2022-09-17T15:30:05;20.30;91.90
31387;DHT22;18017;50.124;8.688;2022-09-17T15:32:34;20.40;91.80
31387;DHT22;18017;50.124;8.688;2022-09-17T15:37:53;20.40;92.10
31387;DHT22;18017;50.124;8.688;2022-09-17T15:40:28;20.10;92.00
31387;DHT22;18017;50.124;8.688;2022-09-17T15:43:05;19.70;92.00
31387;DHT22;18017;50.124;8.688;2022-09-17T15:45:38;19.50;91.80
31387;DHT22;18017;50.124;8.688;2022-09-17T15:50:56;18.90;92.10
31387;DHT22;18017;50.124;8.688;2022-09-17T15:56:12;18.40;92.70
31387;DHT22;18017;50.124;8.688;2022-09-17T16:08:47;17.00;94.80
31387;DHT22;18017;50.124;8.688;2022-09-17T16:11:18;16.80;94.30
31387;DHT22;18017;50.124;8.688;2022-09-17T16:13:47;16.70;94.50
31387;DHT22;18017;50.124;8.688;2022-09-17T16:16:16;16.50;95.40
31387;DHT22;18017;50.124;8.688;2022-09-17T16:18:42;16.50;95.10
31387;DHT22;18017;50.124;8.688;2022-09-17T16:21:11;16.50;95.70
31387;DHT22;18017;50.124;8.688;2022-09-17T16:23:37;16.40;95.70
31387;DHT22;18017;50.124;8.688;2022-09-17T16:26:03;16.40;95.40
31387;DHT22;18017;50.124;8.688;2022-09-17T16:28:29;16.50;95.10
31387;DHT22;18017;50.124;8.688;2022-09-17T16:30:56;16.30;95.50
31387;DHT22;18017;50.124;8.688;2022-09-17T16:33:22;16.20;95.40
31387;DHT22;18017;50.124;8.688;2022-09-17T16:35:48;16.10;96.40
31387;DHT22;18017;50.124;8.688;2022-09-17T16:38:13;16.20;96.70
31387;DHT22;18017;50.124;8.688;2022-09-17T16:40:41;16.20;96.50
31387;DHT22;18017;50.124;8.688;2022-09-17T16:43:07;16.10;96.60
31387;DHT22;18017;50.124;8.688;2022-09-17T16:45:33;16.00;96.70
31387;DHT22;18017;50.124;8.688;2022-09-17T16:47:59;15.90;97.10
31387;DHT22;18017;50.124;8.688;2022-09-17T16:50:27;15.80;97.50
31387;DHT22;18017;50.124;8.688;2022-09-17T16:52:52;15.60;97.80
31387;DHT22;18017;50.124;8.688;2022-09-17T16:55:19;15.50;98.10
31387;DHT22;18017;50.124;8.688;2022-09-17T16:57:45;15.50;98.50
31387;DHT22;18017;50.124;8.688;2022-09-17T17:00:13;15.50;98.70
31387;DHT22;18017;50.124;8.688;2022-09-17T17:02:41;15.50;98.30
31387;DHT22;18017;50.124;8.688;2022-09-17T17:05:08;15.40;98.40
31387;DHT22;18017;50.124;8.688;2022-09-17T17:07:35;15.40;98.80
31387;DHT22;18017;50.124;8.688;2022-09-17T17:10:02;15.30;98.90
31387;DHT22;18017;50.124;8.688;2022-09-17T17:12:28;15.30;99.20
31387;DHT22;18017;50.124;8.688;2022-09-17T17:14:53;15.20;99.70
31387;DHT22;18017;50.124;8.688;2022-09-17T17:17:19;15.10;99.50
31387;DHT22;18017;50.124;8.688;2022-09-17T17:19:45;15.00;99.90
31387;DHT22;18017;50.124;8.688;2022-09-17T17:22:14;14.90;99.90
31387;DHT22;18017;50.124;8.688;2022-09-17T17:24:40;14.90;99.90
31387;DHT22;18017;50.124;8.688;2022-09-17T17:27:07;14.80;99.90
31387;DHT22;18017;50.124;8.688;2022-09-17T17:29:38;14.70;99.90
31387;DHT22;18017;50.124;8.688;2022-09-17T17:32:04;14.70;99.90
31387;DHT22;18017;50.124;8.688;2022-09-17T17:34:30;14.70;99.90
31387;DHT22;18017;50.124;8.688;2022-09-17T17:36:56;14.60;99.90
31387;DHT22;18017;50.124;8.688;2022-09-17T17:39:22;14.50;99.90
31387;DHT22;18017;50.124;8.688;2022-09-17T17:41:47;14.40;99.90
31387;DHT22;18017;50.124;8.688;2022-09-17T17:44:13;14.30;99.90
31387;DHT22;18017;50.124;8.688;2022-09-17T17:46:39;14.10;99.90
31387;DHT22;18017;50.124;8.688;2022-09-17T17:49:05;13.90;99.90
31387;DHT22;18017;50.124;8.688;2022-09-17T17:51:31;13.90;99.90
31387;DHT22;18017;50.124;8.688;2022-09-17T17:53:57;13.70;99.90
31387;DHT22;18017;50.124;8.688;2022-09-17T17:56:22;13.60;99.90
31387;DHT22;18017;50.124;8.688;2022-09-17T17:58:53;13.50;99.90
31387;DHT22;18017;50.124;8.688;2022-09-17T18:01:22;13.40;99.90
31387;DHT22;18017;50.124;8.688;2022-09-17T18:03:48;13.40;99.90
31387;DHT22;18017;50.124;8.688;2022-09-17T18:06:14;13.40;99.90
31387;DHT22;18017;50.124;8.688;2022-09-17T18:08:41;13.40;99.90
31387;DHT22;18017;50.124;8.688;2022-09-17T18:11:09;13.40;99.90
31387;DHT22;18017;50.124;8.688;2022-09-17T18:13:36;13.40;99.90
31387;DHT22;18017;50.124;8.688;2022-09-17T18:16:03;13.40;99.90
31387;DHT22;18017;50.124;8.688;2022-09-17T18:18:35;13.40;99.90
31387;DHT22;18017;50.124;8.688;2022-09-17T18:21:04;13.30;99.90
31387;DHT22;18017;50.124;8.688;2022-09-17T18:23:34;13.20;99.90
31387;DHT22;18017;50.124;8.688;2022-09-17T18:26:01;13.20;99.90
31387;DHT22;18017;50.124;8.688;2022-09-17T18:28:28;13.10;99.90
31387;DHT22;18017;50.124;8.688;2022-09-17T18:30:55;13.00;99.90
31387;DHT22;18017;50.124;8.688;2022-09-17T18:33:25;12.90;99.90
31387;DHT22;18017;50.124;8.688;2022-09-17T18:35:52;12.90;99.90
31387;DHT22;18017;50.124;8.688;2022-09-17T18:38:22;12.90;99.90
31387;DHT22;18017;50.124;8.688;2022-09-17T18:40:48;12.80;99.90
31387;DHT22;18017;50.124;8.688;2022-09-17T18:43:14;12.70;99.90
31387;DHT22;18017;50.124;8.688;2022-09-17T18:45:39;12.70;99.90
31387;DHT22;18017;50.124;8.688;2022-09-17T18:48:06;12.70;99.90
31387;DHT22;18017;50.124;8.688;2022-09-17T18:50:32;12.70;99.90
31387;DHT22;18017;50.124;8.688;2022-09-17T18:52:58;12.60;99.90
31387;DHT22;18017;50.124;8.688;2022-09-17T18:55:24;12.60;99.90
31387;DHT22;18017;50.124;8.688;2022-09-17T18:57:50;12.60;99.90
31387;DHT22;18017;50.124;8.688;2022-09-17T19:00:17;12.70;99.90
31387;DHT22;18017;50.124;8.688;2022-09-17T19:02:46;12.70;99.90
31387;DHT22;18017;50.124;8.688;2022-09-17T19:05:12;12.60;99.90
31387;DHT22;18017;50.124;8.688;2022-09-17T19:07:37;12.60;99.90
31387;DHT22;18017;50.124;8.688;2022-09-17T19:10:07;12.50;99.90